Terminal Aerodrome Forecast
Issued by NWS Caribou, ME

Current Version | Previous Version | Text Only | Print | Product List | Glossary On
Versions: 1 2 3 4 5 6 7 8 9 10 11 12 13 14 15 16
000 FTUS41 KCAR 271228 AAA TAFBGR TAF AMD KBGR 271228Z 2712/2812 34010KT P6SM -SHRA SCT008 BKN015 TEMPO 2712/2716 6SM -RA BR BKN008 OVC015 FM271600 01008KT 3SM -SHRA OVC015 FM272200 01010KT P6SM OVC020=

USA.gov is the U.S. government's official web portal to all federal, state and local government web resources and services.